Latest Weather Observations for Pound Creek

IDV60801

Issued at 8:05 pm EST Friday 18 April 2014 (issued every 30 minutes, with the page automatically refreshed every 10 minutes)

About weather observations | Map of weather stations | Latest weather observations for VIC | Other Formats
Station Details ID: 085099 Name: POUND CREEK Lat: -38.63 Lon: 145.81 Height: 3.0 m
Data from the previous 72 hours. | See also: Recent months at Pound Creek
Date/Time
EST
Temp
°C
App
Temp
°C
Dew
Point
Rel
Hum
%
Delta-T
°C
Wind Press
QNH
hPa
Press
MSL
hPa
Rain
since 9 am
mm
Dir
 
Spd
km/h
Gust
km/h
Spd
kts
Gust
kts
18/08:00pm 14.5 9.1 7.8 64 3.3 SW 26 39 14 21 1018.1 1018.1 2.0
18/07:30pm 14.6 9.3 8.3 66 3.2 SW 26 35 14 19 1017.9 - 2.0
18/07:00pm 14.2 9.6 9.6 74 2.4 SW 24 33 13 18 1017.8 1017.8 2.0
18/06:30pm 14.7 7.9 7.5 62 3.6 SW 33 43 18 23 1017.6 - 2.0
18/06:00pm 14.8 7.9 8.7 67 3.1 SW 35 48 19 26 1017.3 1017.3 2.0
18/05:30pm 15.1 8.1 6.9 58 4.0 WSW 33 41 18 22 1017.0 - 2.0
18/05:00pm 15.4 8.5 7.2 58 4.0 WSW 33 44 18 24 1016.7 1016.7 2.0
18/04:30pm 16.2 9.5 7.4 56 4.4 WSW 32 43 17 23 1016.3 - 2.0
18/04:00pm 15.6 10.5 9.3 66 3.2 WSW 26 41 14 22 1016.0 1016.0 2.0
18/03:43pm 16.2 9.9 9.8 66 3.3 WSW 33 56 18 30 1015.9 - 2.0
18/03:30pm 17.1 11.0 8.3 56 4.5 WSW 30 43 16 23 1015.7 - 2.0
18/03:00pm 17.2 10.3 8.9 58 4.3 SW 35 50 19 27 1015.6 1015.6 2.0
18/02:30pm 16.3 10.0 9.7 65 3.4 WSW 33 46 18 25 1015.4 - 2.0
18/02:00pm 17.3 10.1 9.2 59 4.2 SW 37 48 20 26 1015.1 1015.1 2.0
18/01:30pm 16.9 9.4 9.6 62 3.8 SW 39 50 21 27 1014.8 - 2.0
18/01:00pm 16.0 9.6 10.7 71 2.8 SW 35 48 19 26 1014.7 1014.7 1.8
18/12:30pm 14.9 8.6 10.9 77 2.1 SW 35 48 19 26 1014.7 - 1.8
18/12:00pm 14.8 8.0 11.9 83 1.6 SW 39 48 21 26 1014.5 1014.5 1.8
18/11:30am 14.8 7.9 12.7 87 1.2 SW 41 52 22 28 1014.2 - 1.8
18/11:26am 14.7 7.9 13.1 90 0.9 SW 41 52 22 28 1014.2 - 1.8
18/11:00am 14.3 10.8 13.5 95 0.4 WSW 24 32 13 17 1014.1 1014.1 1.6
18/10:45am 15.1 10.5 13.5 90 0.9 W 30 69 16 37 1013.7 - 0.4
18/10:33am 15.9 11.1 13.0 83 1.6 W 30 50 16 27 1013.8 - 0.2
18/10:30am 16.7 13.5 13.0 79 2.1 W 22 28 12 15 1013.7 - 0.0
18/10:00am 16.9 14.8 12.4 75 2.5 NW 15 24 8 13 1013.7 1013.7 0.0
18/09:30am 15.8 13.6 12.2 79 2.0 WNW 15 24 8 13 1013.7 - 0.0
18/09:00am 16.4 14.7 12.4 77 2.2 NW 13 19 7 10 1013.7 1013.7 0.0
18/08:30am 16.2 14.6 12.7 80 1.9 NNW 13 20 7 11 1013.8 - 0.0
18/08:00am 14.9 13.5 13.3 90 0.9 NNW 13 20 7 11 1013.7 1013.7 0.0
18/07:30am 14.5 13.5 13.5 94 0.6 NNW 11 24 6 13 1013.9 - 0.0
18/07:00am 14.2 13.0 12.9 92 0.7 NNW 11 17 6 9 1013.9 1013.9 0.0
18/06:30am 14.3 12.8 13.2 93 0.6 NNW 13 19 7 10 1013.9 - 0.0
18/06:00am 13.8 12.2 12.9 94 0.5 NNW 13 19 7 10 1014.0 1014.0 0.0
18/05:30am 13.4 11.7 12.5 94 0.5 NNW 13 17 7 9 1014.1 - 0.0
18/05:00am 12.6 11.4 11.7 94 0.5 NNW 9 13 5 7 1014.2 1014.2 0.0
18/04:30am 13.1 11.5 11.5 90 0.8 N 11 13 6 7 1014.5 - 0.0
18/04:00am 13.3 11.6 11.2 87 1.1 NW 11 17 6 9 1014.7 1014.7 0.0
18/03:30am 11.3 9.9 9.7 90 0.8 NW 7 15 4 8 1014.7 - 0.0
18/03:00am 11.5 10.3 9.6 88 1.0 N 6 7 3 4 1014.4 1014.4 0.0
18/02:30am 13.0 11.7 11.2 89 0.9 N 9 13 5 7 1014.8 - 0.0
18/02:00am 12.9 11.5 11.0 88 1.0 N 9 13 5 7 1015.2 1015.2 0.0
18/01:30am 13.1 11.4 11.3 89 1.0 N 11 15 6 8 1015.6 - 0.0
18/01:00am 13.2 12.1 12.1 93 0.6 N 9 11 5 6 1016.0 1016.0 0.0
18/12:30am 13.4 12.9 12.8 96 0.3 NNE 7 11 4 6 1016.5 - 0.0
18/12:00am 12.1 12.6 11.6 97 0.3 WSW 0 0 0 0 1016.8 1016.8 0.0
 
Date/Time
EST
Temp
°C
App
Temp
°C
Dew
Point
Rel
Hum
%
Delta-T
°C
Wind Press
QNH
hPa
Press
MSL
hPa
Rain
since 9 am
mm
Dir
 
Spd
km/h
Gust
km/h
Spd
kts
Gust
kts
17/11:30pm 11.7 11.0 11.4 98 0.2 SSW 6 13 3 7 1017.1 - 0.0
17/11:00pm 9.0 8.7 8.6 97 0.2 CALM 0 4 0 2 1017.4 1017.4 0.0
17/10:30pm 8.5 8.0 7.9 96 0.3 CALM 0 0 0 0 1017.7 - 0.0
17/10:00pm 8.7 8.3 8.1 96 0.3 CALM 0 0 0 0 1018.0 1018.0 0.0
17/09:30pm 9.5 9.3 9.0 97 0.2 CALM 0 0 0 0 1018.0 - 0.0
17/09:00pm 9.6 9.4 9.0 96 0.3 CALM 0 0 0 0 1017.9 1017.9 0.0
17/08:30pm 10.0 9.1 9.2 95 0.4 N 4 4 2 2 1018.0 - 0.0
17/08:00pm 11.7 11.2 10.9 95 0.4 N 4 6 2 3 1018.2 1018.2 0.0
17/07:30pm 12.5 13.0 11.6 94 0.5 CALM 0 0 0 0 1018.3 - 0.0
17/07:00pm 12.8 12.5 11.5 92 0.7 E 4 6 2 3 1018.3 1018.3 0.0
17/06:30pm 13.4 13.5 11.5 88 1.0 ESE 2 4 1 2 1018.3 - 0.0
17/06:00pm 15.0 14.9 12.1 83 1.6 E 4 6 2 3 1018.2 1018.2 0.0
17/05:30pm 16.3 16.0 12.7 79 2.0 ESE 6 7 3 4 1018.1 - 0.0
17/05:00pm 17.8 17.6 13.7 77 2.3 SSE 7 11 4 6 1018.4 1018.4 0.0
17/04:30pm 18.4 17.9 13.9 75 2.6 SSE 9 11 5 6 1018.4 - 0.0
17/04:00pm 18.7 17.8 13.8 73 2.8 SSW 11 13 6 7 1018.5 1018.5 0.0
17/03:30pm 19.4 18.7 14.2 72 3.0 SSW 11 13 6 7 1018.6 - 0.0
17/03:00pm 19.7 18.9 13.9 69 3.3 SSW 11 15 6 8 1018.8 1018.8 0.0
17/02:30pm 20.0 19.2 14.1 69 3.4 SSW 11 15 6 8 1018.9 - 0.0
17/02:00pm 19.8 18.6 14.0 69 3.3 SW 13 19 7 10 1019.0 1019.0 0.0
17/01:30pm 20.0 17.9 13.7 67 3.6 SW 17 20 9 11 1019.2 - 0.0
17/01:00pm 20.8 20.1 12.0 57 4.9 SSW 7 13 4 7 1019.4 1019.4 0.0
17/12:30pm 21.0 20.5 11.9 56 5.1 SW 6 11 3 6 1019.8 - 0.0
17/12:00pm 20.9 20.2 11.5 55 5.2 NNE 6 13 3 7 1020.1 1020.1 0.0
17/11:30am 21.3 21.6 13.5 61 4.5 ENE 4 9 2 5 1020.3 - 0.0
17/11:00am 19.8 19.7 13.3 66 3.7 NNE 6 9 3 5 1020.7 1020.7 0.0
17/10:30am 19.1 19.0 13.3 69 3.3 NE 6 9 3 5 1020.8 - 0.0
17/10:00am 18.2 18.0 13.1 72 2.9 NNE 6 7 3 4 1020.9 1020.9 0.0
17/09:30am 17.1 16.8 13.2 78 2.2 NNE 7 11 4 6 1021.0 - 0.0
17/09:00am 15.9 16.3 13.7 87 1.2 NE 4 7 2 4 1021.2 1021.2 0.0
17/08:30am 13.5 14.0 12.9 96 0.3 SE 2 4 1 2 1021.2 - 0.0
17/08:00am 11.2 11.5 10.9 98 0.2 CALM 0 0 0 0 1021.0 1021.0 0.0
17/07:30am 9.7 9.2 9.2 97 0.2 N 2 6 1 3 1020.7 - 0.0
17/07:00am 9.1 7.6 8.6 97 0.2 NNE 6 7 3 4 1020.4 1020.4 0.0
17/06:30am 8.3 7.4 7.9 97 0.2 N 2 4 1 2 1020.2 - 0.0
17/06:00am 8.4 6.8 8.0 97 0.2 NNE 6 7 3 4 1020.1 1020.1 0.0
17/05:30am 8.4 7.1 7.8 96 0.3 N 4 6 2 3 1019.8 - 0.0
17/05:00am 7.8 7.2 7.2 96 0.3 CALM 0 0 0 0 1019.8 1019.8 0.0
17/04:30am 7.1 6.3 6.4 95 0.3 CALM 0 0 0 0 1019.6 - 0.0
17/04:00am 7.9 7.2 6.8 93 0.5 CALM 0 4 0 2 1019.4 1019.4 0.0
17/03:30am 8.6 8.0 7.4 92 0.6 CALM 0 0 0 0 1019.4 - 0.0
17/03:00am 9.5 9.0 7.8 89 0.8 CALM 0 0 0 0 1019.3 1019.3 0.0
17/02:30am 11.3 9.8 9.2 87 1.0 N 7 11 4 6 1019.2 - 0.0
17/02:00am 12.2 9.7 9.8 85 1.2 N 13 17 7 9 1019.2 1019.2 0.0
17/01:30am 11.8 9.2 9.5 86 1.2 N 13 17 7 9 1019.4 - 0.0
17/01:00am 11.3 9.4 9.2 87 1.0 N 9 11 5 6 1019.4 1019.4 0.0
17/12:30am 10.9 9.3 8.8 87 1.0 N 7 13 4 7 1019.4 - 0.0
17/12:00am 11.6 9.7 9.0 84 1.3 N 9 15 5 8 1019.4 1019.4 0.0
 
Date/Time
EST
Temp
°C
App
Temp
°C
Dew
Point
Rel
Hum
%
Delta-T
°C
Wind Press
QNH
hPa
Press
MSL
hPa
Rain
since 9 am
mm
Dir
 
Spd
km/h
Gust
km/h
Spd
kts
Gust
kts
16/11:30pm 12.5 10.4 9.7 83 1.4 NNE 11 15 6 8 1019.4 - 0.0
16/11:00pm 13.3 10.5 9.9 80 1.7 NNE 15 20 8 11 1019.6 1019.6 0.0
16/10:30pm 13.2 10.8 10.0 81 1.6 NNE 13 19 7 10 1019.7 - 0.0
16/10:00pm 14.2 11.1 10.2 77 2.1 NNE 17 24 9 13 1019.7 1019.7 0.0
16/09:30pm 14.9 12.0 10.9 77 2.1 NNE 17 24 9 13 1019.8 - 0.0
16/09:00pm 14.6 13.5 11.9 84 1.5 NNE 9 15 5 8 1019.8 1019.8 0.0
16/08:30pm 13.3 12.9 11.2 87 1.1 NE 4 6 2 3 1019.9 - 0.0
16/08:00pm 13.8 14.1 11.0 83 1.5 CALM 0 0 0 0 1019.8 1019.8 0.0
16/07:30pm 14.1 14.0 10.9 81 1.7 E 2 7 1 4 1019.5 - 0.0
16/07:00pm 14.2 13.2 11.0 81 1.7 E 7 11 4 6 1019.3 1019.3 0.0
16/06:30pm 14.9 13.3 11.5 80 1.8 E 11 13 6 7 1019.1 - 0.0
16/06:00pm 15.3 14.1 11.7 79 1.9 E 9 13 5 7 1018.9 1018.9 0.0
16/05:30pm 16.7 15.4 12.5 76 2.3 E 11 17 6 9 1018.7 - 0.0
16/05:00pm 17.8 15.4 12.7 72 2.8 E 17 24 9 13 1018.4 1018.4 0.0
16/04:30pm 18.4 16.5 13.1 71 3.0 ESE 15 20 8 11 1018.4 - 0.0
16/04:00pm 19.4 17.2 12.2 63 4.0 E 15 24 8 13 1018.2 1018.2 0.0
16/03:30pm 20.1 19.3 9.7 51 5.6 NE 4 9 2 5 1018.3 - 0.0
16/03:00pm 21.4 20.7 9.9 48 6.2 E 4 7 2 4 1018.5 1018.5 0.0
16/02:30pm 20.8 19.5 9.1 47 6.2 NE 6 13 3 7 1018.6 - 0.0
16/02:00pm 20.8 19.7 10.0 50 5.8 NE 6 13 3 7 1018.8 1018.8 0.0
16/01:30pm 20.9 19.6 9.8 49 6.0 NNE 7 15 4 8 1018.9 - 0.0
16/01:00pm 20.8 18.3 9.7 49 5.9 NNE 13 19 7 10 1019.1 1019.1 0.0
16/12:30pm 21.1 19.5 11.4 54 5.4 NE 11 19 6 10 1019.4 - 0.0
16/12:00pm 19.6 16.7 9.8 53 5.2 NE 15 20 8 11 1019.8 1019.8 0.0
16/11:30am 19.6 16.8 10.0 54 5.1 NE 15 20 8 11 1020.2 - 0.0
16/11:00am 19.0 16.3 10.3 57 4.7 ENE 15 20 8 11 1020.5 1020.5 0.0
16/10:30am 18.7 16.3 11.3 62 4.0 NE 15 22 8 12 1020.8 - 0.0
16/10:00am 17.5 15.8 11.3 67 3.3 ENE 11 17 6 9 1021.3 1021.3 0.0
16/09:30am 16.6 14.6 11.5 72 2.8 ENE 13 20 7 11 1021.4 - 0.0
16/09:00am 16.0 13.2 11.2 73 2.6 E 17 22 9 12 1021.2 1021.2 0.2
16/08:30am 15.2 13.5 11.2 77 2.1 ENE 11 19 6 10 1021.3 - 0.2
16/08:00am 13.5 12.6 11.2 86 1.2 ENE 7 9 4 5 1021.5 1021.5 0.2
16/07:30am 11.3 9.2 9.9 91 0.7 ENE 11 13 6 7 1021.4 - 0.2
16/07:00am 9.1 7.1 8.8 98 0.1 ENE 9 13 5 7 1021.4 1021.4 0.0
16/06:30am 6.1 3.9 5.2 94 0.4 E 6 7 3 4 1021.5 - 0.0
16/06:00am 9.0 7.4 8.2 95 0.4 ENE 6 7 3 4 1021.4 1021.4 0.0
16/05:30am 8.0 6.0 7.1 94 0.4 ENE 7 9 4 5 1021.4 - 0.0
16/05:00am 8.1 6.2 6.9 92 0.6 ESE 6 9 3 5 1021.4 1021.4 0.0
16/04:30am 10.0 8.6 8.9 93 0.5 ESE 6 9 3 5 1021.2 - 0.0
16/04:00am 9.2 7.7 8.4 95 0.4 E 6 7 3 4 1021.1 1021.1 0.0
16/03:30am 9.7 7.8 9.1 96 0.3 ENE 9 13 5 7 1021.0 - 0.0
16/03:00am 8.6 6.8 8.0 96 0.3 E 7 9 4 5 1021.4 1021.4 0.0
16/02:30am 8.7 7.1 7.9 95 0.4 E 6 9 3 5 1021.7 - 0.0
16/02:00am 9.8 8.2 8.9 94 0.4 E 7 11 4 6 1022.0 1022.0 0.0
16/01:30am 9.5 7.8 8.3 92 0.6 E 7 11 4 6 1022.4 - 0.0
16/01:00am 10.2 8.2 8.6 90 0.8 E 9 11 5 6 1022.5 1022.5 0.0
16/12:30am 13.1 10.8 10.6 85 1.3 NE 13 19 7 10 1022.6 - 0.0
16/12:00am 12.7 11.0 11.1 90 0.8 ENE 11 15 6 8 1022.8 1022.8 0.0
 
Date/Time
EST
Temp
°C
App
Temp
°C
Dew
Point
Rel
Hum
%
Delta-T
°C
Wind Press
QNH
hPa
Press
MSL
hPa
Rain
since 9 am
mm
Dir
 
Spd
km/h
Gust
km/h
Spd
kts
Gust
kts
15/11:30pm 12.3 10.3 11.4 94 0.5 ENE 13 17 7 9 1023.0 - 0.0
15/11:00pm 10.9 9.3 10.3 96 0.3 ENE 9 11 5 6 1023.3 1023.3 0.0
15/10:30pm 10.3 8.9 9.5 95 0.4 E 7 7 4 4 1023.6 - 0.0
15/10:00pm 10.7 9.6 9.9 95 0.4 ENE 6 9 3 5 1023.8 1023.8 0.0
15/09:30pm 11.2 10.0 10.3 94 0.5 ENE 7 9 4 5 1023.7 - 0.0
15/09:00pm 11.8 10.4 11.0 95 0.4 ENE 9 9 5 5 1023.7 1023.7 0.0
15/08:30pm 11.3 10.1 10.2 93 0.6 E 7 9 4 5 1023.6 - 0.0

Other Formats:

Comma delimited format used in spreadsheet applications
http://www.bom.gov.au/fwo/IDV60801/IDV60801.94886.axf

JavaScript Object Notation format (JSON) in row-major order
http://www.bom.gov.au/fwo/IDV60801/IDV60801.94886.json